createdAt,value
2019-03-16T00:02:02.803Z,3.37
2019-03-16T00:04:46.474Z,4.53
2019-03-16T00:07:32.864Z,6.03
2019-03-16T00:10:02.188Z,3.87
2019-03-16T00:12:39.246Z,5.30
2019-03-16T00:15:16.249Z,4.33
2019-03-16T00:17:53.336Z,3.47
2019-03-16T00:20:30.329Z,4.33
2019-03-16T00:23:07.388Z,6.33
2019-03-16T00:25:44.377Z,4.47
2019-03-16T00:28:21.412Z,5.90
2019-03-16T00:30:58.420Z,4.97
2019-03-16T00:33:35.574Z,4.53
2019-03-16T00:36:12.648Z,4.03
2019-03-16T00:38:49.660Z,1.77
2019-03-16T00:41:26.708Z,4.73
2019-03-16T00:44:03.717Z,6.27
2019-03-16T00:46:40.761Z,3.97
2019-03-16T00:49:23.593Z,2.57
2019-03-16T00:52:00.620Z,4.47
2019-03-16T00:54:37.641Z,8.47
2019-03-16T00:57:14.738Z,4.57
2019-03-16T00:59:51.771Z,5.93
2019-03-16T01:02:28.861Z,4.10
2019-03-16T01:05:06.697Z,4.83
2019-03-16T01:07:43.790Z,8.33
2019-03-16T01:10:20.816Z,5.10
2019-03-16T01:12:57.881Z,5.20
2019-03-16T01:15:34.965Z,8.13
2019-03-16T01:18:12.115Z,7.17
2019-03-16T01:20:49.181Z,5.37
2019-03-16T01:23:26.217Z,5.77
2019-03-16T01:26:12.746Z,4.43
2019-03-16T01:28:51.337Z,6.00
2019-03-16T01:31:28.623Z,5.50
2019-03-16T01:34:05.679Z,3.80
2019-03-16T01:36:43.305Z,6.30
2019-03-16T01:39:20.433Z,8.70
2019-03-16T01:41:57.478Z,7.70
2019-03-16T01:44:34.561Z,5.47
2019-03-16T01:47:11.609Z,5.13
2019-03-16T01:49:48.725Z,4.17
2019-03-16T01:52:25.756Z,4.50
2019-03-16T01:55:02.870Z,3.40
2019-03-16T01:57:40.954Z,4.80
2019-03-16T02:00:18.033Z,3.53
2019-03-16T02:02:55.979Z,6.73
2019-03-16T02:05:33.130Z,2.60
2019-03-16T02:08:10.331Z,4.60
2019-03-16T02:10:47.438Z,7.43
2019-03-16T02:13:24.729Z,5.90
2019-03-16T02:16:10.927Z,8.07
2019-03-16T02:18:40.615Z,4.90
2019-03-16T02:21:17.709Z,7.77
2019-03-16T02:23:54.758Z,3.73
2019-03-16T02:26:31.900Z,5.67
2019-03-16T02:29:09.007Z,5.60
2019-03-16T02:31:46.216Z,6.77
2019-03-16T02:34:23.447Z,6.90
2019-03-16T02:37:00.550Z,5.90
2019-03-16T02:39:37.646Z,7.70
2019-03-16T02:42:15.408Z,6.23
2019-03-16T02:44:52.640Z,6.87
2019-03-16T02:47:29.665Z,3.23
2019-03-16T02:50:11.234Z,4.63
2019-03-16T02:52:50.095Z,4.50
2019-03-16T02:55:26.979Z,7.03
2019-03-16T02:58:04.526Z,5.47
2019-03-16T03:00:41.570Z,4.83
2019-03-16T03:03:29.070Z,3.17
2019-03-16T03:05:58.583Z,3.97
2019-03-16T03:08:35.767Z,5.27
2019-03-16T03:11:12.877Z,4.70
2019-03-16T03:13:49.875Z,5.93
2019-03-16T03:16:26.960Z,4.73
2019-03-16T03:19:03.969Z,6.93
2019-03-16T03:21:40.974Z,5.03
2019-03-16T03:24:18.039Z,6.83
2019-03-16T03:26:55.114Z,4.87
2019-03-16T03:29:32.166Z,6.77
2019-03-16T03:32:09.261Z,4.03
2019-03-16T03:34:46.327Z,4.50
2019-03-16T03:37:25.052Z,5.53
2019-03-16T03:40:23.256Z,4.80
2019-03-16T03:43:09.740Z,9.53
2019-03-16T03:45:59.994Z,8.07
2019-03-16T03:48:52.984Z,6.47
2019-03-16T03:51:30.015Z,4.17
2019-03-16T03:54:07.096Z,7.30
2019-03-16T03:56:44.096Z,7.10
2019-03-16T03:59:21.155Z,5.40
2019-03-16T04:01:58.121Z,7.37
2019-03-16T04:04:35.187Z,9.13
2019-03-16T04:07:12.605Z,6.50
2019-03-16T04:09:51.284Z,8.43
2019-03-16T04:12:30.241Z,10.40
2019-03-16T04:15:11.496Z,15.63
2019-03-16T04:17:48.596Z,6.73
2019-03-16T04:20:25.665Z,8.40
2019-03-16T04:23:02.644Z,6.90
2019-03-16T04:25:39.722Z,6.93
2019-03-16T04:28:16.732Z,10.07
2019-03-16T04:30:53.786Z,7.10
2019-03-16T04:33:30.762Z,7.90
2019-03-16T04:36:08.680Z,6.40
2019-03-16T04:38:45.610Z,7.07
2019-03-16T04:41:23.406Z,9.53
2019-03-16T04:44:00.386Z,10.10
2019-03-16T04:46:37.515Z,8.67
2019-03-16T04:49:14.534Z,8.60
2019-03-16T04:51:51.590Z,9.53
2019-03-16T04:54:28.660Z,7.77
2019-03-16T04:57:05.757Z,8.77
2019-03-16T04:59:42.804Z,8.27
2019-03-16T05:02:19.891Z,8.90
2019-03-16T05:04:56.911Z,9.60
2019-03-16T05:07:34.196Z,6.97
2019-03-16T05:10:11.613Z,8.00
2019-03-16T05:12:48.848Z,6.90
2019-03-16T05:15:25.912Z,7.77
2019-03-16T05:18:03.044Z,5.23
2019-03-16T05:20:40.068Z,8.83
2019-03-16T05:23:17.231Z,6.30
2019-03-16T05:25:54.640Z,11.47
2019-03-16T05:28:31.816Z,8.50
2019-03-16T05:31:08.907Z,5.83
2019-03-16T05:33:47.094Z,9.27
2019-03-16T05:36:24.219Z,9.60
2019-03-16T05:39:01.353Z,9.63
2019-03-16T05:41:38.366Z,9.80
2019-03-16T05:44:15.429Z,11.13
2019-03-16T05:46:52.451Z,8.37
2019-03-16T05:49:29.556Z,12.07
2019-03-16T05:52:06.652Z,8.17
2019-03-16T05:54:43.771Z,11.10
2019-03-16T05:57:20.801Z,13.00
2019-03-16T05:59:57.976Z,8.13
2019-03-16T06:02:35.081Z,7.43
2019-03-16T06:05:12.889Z,7.37
2019-03-16T06:07:49.981Z,10.17
2019-03-16T06:10:27.055Z,9.13
2019-03-16T06:13:04.277Z,9.97
2019-03-16T06:15:41.322Z,7.07
2019-03-16T06:18:18.403Z,11.43
2019-03-16T06:20:56.122Z,6.70
2019-03-16T06:23:33.730Z,10.20
2019-03-16T06:26:10.760Z,7.43
2019-03-16T06:28:47.920Z,10.07
2019-03-16T06:31:24.943Z,12.33
2019-03-16T06:34:02.124Z,10.87
2019-03-16T06:36:39.166Z,9.73
2019-03-16T06:39:16.265Z,9.07
2019-03-16T06:41:53.308Z,12.37
2019-03-16T06:44:30.465Z,9.30
2019-03-16T06:47:07.525Z,13.10
2019-03-16T06:49:44.650Z,11.20
2019-03-16T06:52:21.696Z,13.20
2019-03-16T06:55:00.513Z,8.03
2019-03-16T06:57:37.624Z,10.07
2019-03-16T07:00:18.498Z,7.53
2019-03-16T07:02:55.559Z,11.17
2019-03-16T07:05:38.442Z,7.60
2019-03-16T07:08:11.397Z,12.20
2019-03-16T07:10:48.604Z,9.00
2019-03-16T07:13:25.698Z,12.60
2019-03-16T07:16:02.954Z,13.97
2019-03-16T07:18:40.083Z,12.43
2019-03-16T07:21:17.283Z,11.77
2019-03-16T07:23:54.898Z,11.87
2019-03-16T07:26:34.714Z,17.30
2019-03-16T07:29:11.914Z,10.93
2019-03-16T07:31:49.226Z,10.87
2019-03-16T07:34:28.103Z,12.50
2019-03-16T07:37:06.598Z,10.37
2019-03-16T07:39:43.799Z,8.53
2019-03-16T07:42:22.566Z,13.47
2019-03-16T07:45:08.288Z,9.93
2019-03-16T07:47:39.127Z,12.23
2019-03-16T07:50:16.431Z,9.57
2019-03-16T07:52:57.455Z,8.63
2019-03-16T07:55:35.791Z,14.53
2019-03-16T07:58:13.554Z,9.50
2019-03-16T08:00:51.736Z,11.63
2019-03-16T08:03:29.768Z,11.47
2019-03-16T08:06:07.702Z,8.50
2019-03-16T08:08:46.268Z,8.37
2019-03-16T08:11:23.650Z,7.00
2019-03-16T08:14:00.852Z,10.80
2019-03-16T08:16:38.016Z,9.97
2019-03-16T08:19:15.117Z,10.93
2019-03-16T08:21:58.402Z,9.43
2019-03-16T08:24:35.546Z,11.40
2019-03-16T08:27:21.301Z,11.40
2019-03-16T08:29:58.357Z,12.33
2019-03-16T08:32:35.538Z,15.20
2019-03-16T08:35:12.713Z,11.03
2019-03-16T08:37:50.009Z,6.47
2019-03-16T08:40:27.185Z,12.13
2019-03-16T08:43:04.987Z,10.13
2019-03-16T08:45:42.007Z,10.57
2019-03-16T08:48:23.098Z,10.63
2019-03-16T08:50:57.771Z,8.13
2019-03-16T08:53:34.871Z,9.63
2019-03-16T08:56:12.694Z,10.13
2019-03-16T08:58:51.013Z,11.93
2019-03-16T09:01:28.067Z,7.43
2019-03-16T09:04:05.169Z,9.23
2019-03-16T09:06:42.189Z,8.70
2019-03-16T09:09:19.298Z,8.23
2019-03-16T09:11:58.306Z,10.43
2019-03-16T09:14:35.088Z,8.83
2019-03-16T09:17:12.183Z,7.87
2019-03-16T09:19:49.349Z,7.07
2019-03-16T09:22:26.452Z,18.47
2019-03-16T09:25:09.297Z,35.40
2019-03-16T09:27:46.404Z,10.27
2019-03-16T09:30:23.462Z,9.30
2019-03-16T09:33:00.546Z,12.70
2019-03-16T09:35:37.629Z,6.97
2019-03-16T09:38:14.707Z,5.43
2019-03-16T09:40:51.801Z,8.63
2019-03-16T09:43:28.869Z,5.60
2019-03-16T09:46:05.944Z,8.87
2019-03-16T09:48:43.010Z,5.70
2019-03-16T09:51:20.042Z,7.87
2019-03-16T09:53:57.171Z,9.80
2019-03-16T09:56:35.237Z,10.07
2019-03-16T09:59:18.880Z,10.47
2019-03-16T10:01:55.944Z,9.87
2019-03-16T10:04:33.140Z,10.47
2019-03-16T10:07:10.353Z,9.77
2019-03-16T10:09:50.497Z,8.67
2019-03-16T10:12:27.592Z,8.17
2019-03-16T10:15:07.665Z,12.17
2019-03-16T10:17:45.001Z,11.03
2019-03-16T10:20:22.094Z,10.27
2019-03-16T10:22:59.365Z,6.70
2019-03-16T10:25:36.566Z,10.40
2019-03-16T10:28:13.777Z,10.30
2019-03-16T10:30:53.737Z,8.37
2019-03-16T10:33:30.980Z,10.40
2019-03-16T10:36:08.337Z,10.37
2019-03-16T10:38:45.659Z,7.57
2019-03-16T10:41:22.826Z,10.07
2019-03-16T10:44:00.023Z,7.43
2019-03-16T10:46:37.163Z,8.23
2019-03-16T10:49:14.404Z,7.57
2019-03-16T10:51:51.625Z,9.23
2019-03-16T10:54:29.443Z,11.50
2019-03-16T10:57:08.227Z,9.37
2019-03-16T10:59:45.398Z,6.60
2019-03-16T11:02:22.561Z,7.30
2019-03-16T11:04:59.680Z,8.53
2019-03-16T11:07:36.832Z,9.47
2019-03-16T11:10:14.575Z,6.43
2019-03-16T11:12:51.661Z,9.87
2019-03-16T11:15:28.764Z,13.17
2019-03-16T11:18:05.980Z,8.93
2019-03-16T11:20:43.909Z,10.40
2019-03-16T11:23:21.024Z,8.73
2019-03-16T11:25:58.168Z,12.43
2019-03-16T11:28:35.239Z,6.27
2019-03-16T11:31:12.792Z,7.60
2019-03-16T11:33:50.258Z,7.03
2019-03-16T11:36:27.438Z,7.47
2019-03-16T11:39:06.723Z,11.97
2019-03-16T11:41:43.872Z,7.30
2019-03-16T11:44:21.002Z,10.70
2019-03-16T11:46:58.326Z,7.37
2019-03-16T11:49:35.337Z,4.83
2019-03-16T11:52:12.604Z,8.67
2019-03-16T11:54:49.623Z,4.80
2019-03-16T11:57:26.858Z,7.97
2019-03-16T12:00:05.981Z,7.67
2019-03-16T12:02:43.096Z,10.30
2019-03-16T12:05:20.175Z,10.00
2019-03-16T12:07:57.298Z,8.60
2019-03-16T12:10:34.350Z,4.93
2019-03-16T12:13:17.414Z,6.57
2019-03-16T12:15:50.156Z,6.30
2019-03-16T12:18:27.229Z,12.50
2019-03-16T12:21:06.116Z,7.70
2019-03-16T12:23:43.166Z,6.57
2019-03-16T12:26:20.386Z,5.63
2019-03-16T12:28:57.405Z,6.90
2019-03-16T12:31:34.770Z,6.37
2019-03-16T12:34:12.348Z,7.43
2019-03-16T12:36:49.721Z,8.37
2019-03-16T12:39:26.749Z,6.37
2019-03-16T12:42:05.479Z,6.30
2019-03-16T12:44:42.491Z,7.33
2019-03-16T12:47:19.633Z,6.73
2019-03-16T12:49:56.707Z,9.30
2019-03-16T12:52:33.756Z,7.27
2019-03-16T12:55:12.826Z,9.13
2019-03-16T12:57:49.904Z,6.47
2019-03-16T13:00:26.966Z,6.07
2019-03-16T13:03:04.033Z,9.07
2019-03-16T13:05:41.100Z,5.50
2019-03-16T13:08:18.217Z,6.47
2019-03-16T13:10:55.269Z,7.13
2019-03-16T13:13:34.034Z,5.17
2019-03-16T13:16:11.072Z,7.43
2019-03-16T13:18:48.159Z,3.33
2019-03-16T13:21:25.194Z,5.80
2019-03-16T13:24:02.320Z,4.97
2019-03-16T13:26:39.410Z,6.67
2019-03-16T13:29:16.539Z,8.80
2019-03-16T13:31:53.780Z,5.37
2019-03-16T13:34:31.689Z,3.93
2019-03-16T13:37:08.802Z,6.37
2019-03-16T13:39:45.897Z,5.23
2019-03-16T13:42:23.027Z,4.60
2019-03-16T13:45:01.565Z,4.53
2019-03-16T13:47:38.649Z,5.47
2019-03-16T13:50:17.563Z,6.23
2019-03-16T13:52:54.899Z,5.40
2019-03-16T13:55:31.975Z,3.97
2019-03-16T13:58:09.086Z,3.77
2019-03-16T14:00:46.152Z,7.67
2019-03-16T14:03:23.686Z,4.07
2019-03-16T14:06:02.098Z,6.37
2019-03-16T14:08:40.155Z,4.23
2019-03-16T14:11:17.203Z,5.17
2019-03-16T14:13:54.349Z,3.27
2019-03-16T14:16:31.366Z,3.00
2019-03-16T14:19:08.978Z,3.00
2019-03-16T14:21:46.219Z,3.80
2019-03-16T14:24:23.531Z,2.53
2019-03-16T14:27:00.870Z,4.00
2019-03-16T14:29:37.963Z,4.53
2019-03-16T14:32:15.438Z,3.40
2019-03-16T14:34:53.077Z,4.47
2019-03-16T14:37:30.307Z,3.70
2019-03-16T14:40:13.044Z,4.07
2019-03-16T14:42:50.158Z,4.40
2019-03-16T14:45:27.538Z,1.73
2019-03-16T14:48:04.600Z,3.63
2019-03-16T14:50:41.672Z,4.27
2019-03-16T14:53:18.750Z,3.57
2019-03-16T14:55:56.467Z,3.87
2019-03-16T14:58:33.490Z,3.27
2019-03-16T15:01:13.122Z,3.53
2019-03-16T15:03:49.265Z,3.53
2019-03-16T15:06:26.482Z,6.20
2019-03-16T15:09:03.861Z,6.33
2019-03-16T15:11:40.956Z,6.77
2019-03-16T15:14:22.048Z,6.47
2019-03-16T15:16:56.736Z,7.43
2019-03-16T15:19:33.741Z,5.50
2019-03-16T15:22:12.085Z,5.30
2019-03-16T15:24:49.415Z,5.43
2019-03-16T15:27:26.481Z,6.13
2019-03-16T15:30:04.547Z,13.13
2019-03-16T15:32:41.971Z,5.93
2019-03-16T15:35:19.108Z,5.97
2019-03-16T15:37:56.177Z,6.07
2019-03-16T15:40:34.613Z,5.47
2019-03-16T15:43:11.698Z,7.87
2019-03-16T15:45:48.746Z,8.80
2019-03-16T15:48:26.901Z,9.47
2019-03-16T15:51:03.966Z,8.97
2019-03-16T15:53:41.061Z,9.00
2019-03-16T15:56:18.123Z,8.50
2019-03-16T15:58:55.174Z,8.80
2019-03-16T16:01:32.237Z,7.97
2019-03-16T16:04:09.271Z,7.53
2019-03-16T16:06:46.332Z,11.60
2019-03-16T16:09:23.422Z,16.17
2019-03-16T16:12:00.488Z,12.90
2019-03-16T16:14:37.570Z,13.97
2019-03-16T16:17:14.648Z,9.10
2019-03-16T16:19:51.701Z,14.97
2019-03-16T16:22:28.774Z,13.43
2019-03-16T16:25:10.312Z,21.13
2019-03-16T16:27:47.418Z,13.17
2019-03-16T16:30:26.162Z,11.13
2019-03-16T16:33:03.569Z,13.00
2019-03-16T16:35:41.069Z,14.20
2019-03-16T16:38:18.172Z,13.17
2019-03-16T16:40:55.340Z,13.60
2019-03-16T16:43:32.403Z,10.40
2019-03-16T16:46:09.436Z,15.90
2019-03-16T16:48:46.472Z,13.57
2019-03-16T16:51:23.504Z,15.50
2019-03-16T16:54:00.546Z,15.47
2019-03-16T16:56:37.620Z,14.80
2019-03-16T16:59:14.678Z,17.07
2019-03-16T17:01:51.751Z,20.07
2019-03-16T17:04:28.829Z,16.93
2019-03-16T17:07:10.457Z,16.40
2019-03-16T17:09:47.721Z,13.40
2019-03-16T17:12:24.834Z,15.17
2019-03-16T17:15:01.929Z,15.40
2019-03-16T17:17:39.008Z,19.87
2019-03-16T17:20:16.376Z,18.43
2019-03-16T17:22:54.026Z,22.53
2019-03-16T17:25:32.540Z,21.63
2019-03-16T17:28:11.947Z,22.90
2019-03-16T17:30:49.031Z,18.63
2019-03-16T17:33:26.401Z,27.63
2019-03-16T17:36:03.647Z,22.00
2019-03-16T17:38:40.755Z,23.87
2019-03-16T17:41:19.447Z,25.97
2019-03-16T17:43:56.529Z,27.53
2019-03-16T17:46:33.595Z,28.17
2019-03-16T17:49:10.675Z,29.13
2019-03-16T17:51:47.746Z,23.30
2019-03-16T17:54:24.794Z,22.87
2019-03-16T17:57:01.909Z,23.90
2019-03-16T17:59:38.918Z,21.77
2019-03-16T18:02:16.010Z,22.00
2019-03-16T18:04:53.098Z,19.17
2019-03-16T18:07:30.229Z,17.93
2019-03-16T18:10:09.536Z,16.93
2019-03-16T18:12:46.637Z,14.17
2019-03-16T18:15:23.726Z,16.97
2019-03-16T18:18:00.816Z,13.80
2019-03-16T18:20:37.872Z,12.33
2019-03-16T18:23:14.985Z,12.17
2019-03-16T18:25:52.086Z,12.93
2019-03-16T18:28:29.169Z,10.33
2019-03-16T18:31:08.196Z,12.37
2019-03-16T18:33:48.918Z,17.10
2019-03-16T18:36:26.690Z,15.17
2019-03-16T18:39:07.291Z,15.47
2019-03-16T18:41:44.850Z,13.67
2019-03-16T18:44:21.893Z,14.87
2019-03-16T18:46:59.002Z,14.23
2019-03-16T18:49:36.079Z,16.17
2019-03-16T18:52:13.275Z,20.03
2019-03-16T18:54:50.362Z,19.20
2019-03-16T18:57:27.538Z,21.17
2019-03-16T19:00:07.571Z,21.37
2019-03-16T19:02:44.618Z,21.53
2019-03-16T19:05:21.753Z,21.90
2019-03-16T19:07:58.808Z,23.77
2019-03-16T19:10:37.755Z,24.53
2019-03-16T19:13:14.805Z,28.57
2019-03-16T19:15:51.864Z,30.83
2019-03-16T19:18:28.852Z,31.00
2019-03-16T19:21:05.938Z,37.93
2019-03-16T19:23:44.560Z,31.70
2019-03-16T19:26:21.636Z,31.27
2019-03-16T19:28:58.857Z,33.07
2019-03-16T19:31:35.906Z,32.50
2019-03-16T19:34:13.099Z,33.53
2019-03-16T19:36:52.881Z,31.37
2019-03-16T19:39:29.956Z,26.30
2019-03-16T19:42:07.640Z,27.13
2019-03-16T19:44:44.755Z,30.90
2019-03-16T19:47:21.868Z,29.43
2019-03-16T19:49:58.976Z,28.97
2019-03-16T19:52:36.000Z,27.57
2019-03-16T19:55:27.099Z,39.33
2019-03-16T19:58:10.067Z,34.80
2019-03-16T20:00:47.220Z,32.73
2019-03-16T20:03:24.341Z,33.90
2019-03-16T20:06:01.479Z,32.63
2019-03-16T20:08:38.525Z,33.10
2019-03-16T20:11:15.608Z,33.13
2019-03-16T20:13:52.682Z,35.90
2019-03-16T20:16:29.780Z,39.93
2019-03-16T20:19:06.795Z,37.53
2019-03-16T20:21:43.873Z,38.20
2019-03-16T20:24:21.133Z,36.63
2019-03-16T20:26:58.287Z,40.90
2019-03-16T20:29:35.880Z,37.47
2019-03-16T20:32:13.437Z,37.47
2019-03-16T20:34:50.568Z,34.20
2019-03-16T20:37:27.631Z,37.97
2019-03-16T20:40:15.373Z,42.33
2019-03-16T20:42:52.405Z,35.53
2019-03-16T20:45:29.569Z,36.33
2019-03-16T20:48:06.776Z,32.87
2019-03-16T20:50:43.906Z,34.17
2019-03-16T20:53:20.957Z,40.70
2019-03-16T20:55:59.793Z,36.60
2019-03-16T20:58:36.838Z,37.03
2019-03-16T21:01:14.160Z,35.63
2019-03-16T21:03:51.236Z,32.80
2019-03-16T21:06:29.975Z,28.53
2019-03-16T21:09:07.361Z,33.50
2019-03-16T21:11:44.599Z,32.60
2019-03-16T21:14:21.702Z,30.97
2019-03-16T21:16:58.883Z,33.10
2019-03-16T21:19:35.986Z,33.17
2019-03-16T21:22:13.867Z,28.97
2019-03-16T21:24:50.905Z,32.00
2019-03-16T21:27:28.068Z,31.13
2019-03-16T21:30:08.403Z,34.37
2019-03-16T21:32:45.566Z,32.17
2019-03-16T21:35:22.641Z,32.70
2019-03-16T21:37:59.721Z,31.73
2019-03-16T21:40:36.765Z,35.57
2019-03-16T21:43:13.846Z,31.47
2019-03-16T21:45:50.861Z,30.40
2019-03-16T21:48:28.028Z,28.80
2019-03-16T21:51:05.079Z,28.77
2019-03-16T21:53:42.188Z,27.63
2019-03-16T21:56:19.309Z,29.30
2019-03-16T21:58:56.473Z,28.70
2019-03-16T22:01:33.400Z,24.37
2019-03-16T22:04:10.497Z,28.27
2019-03-16T22:06:47.541Z,28.50
2019-03-16T22:09:24.611Z,25.43
2019-03-16T22:12:01.675Z,26.23
2019-03-16T22:14:38.754Z,28.63
2019-03-16T22:17:15.807Z,27.67
2019-03-16T22:19:52.869Z,29.93
2019-03-16T22:22:29.947Z,27.80
2019-03-16T22:25:07.899Z,30.73
2019-03-16T22:27:44.991Z,32.70
2019-03-16T22:30:22.020Z,33.77
2019-03-16T22:32:59.061Z,37.40
2019-03-16T22:35:36.119Z,34.70
2019-03-16T22:38:13.168Z,34.07
2019-03-16T22:40:50.215Z,31.50
2019-03-16T22:43:27.249Z,33.90
2019-03-16T22:46:04.440Z,33.20
2019-03-16T22:48:41.483Z,30.53
2019-03-16T22:51:18.540Z,29.07
2019-03-16T22:53:55.583Z,30.97
2019-03-16T22:56:32.676Z,28.13
2019-03-16T22:59:09.828Z,28.80
2019-03-16T23:01:46.884Z,27.40
2019-03-16T23:04:24.280Z,29.57
2019-03-16T23:07:01.468Z,30.53
2019-03-16T23:09:38.524Z,24.67
2019-03-16T23:12:16.052Z,26.80
2019-03-16T23:14:59.053Z,29.80
2019-03-16T23:17:39.298Z,29.13
2019-03-16T23:20:24.079Z,28.33
2019-03-16T23:23:13.949Z,28.27
2019-03-16T23:25:56.138Z,32.07
2019-03-16T23:28:33.404Z,30.83
2019-03-16T23:31:12.534Z,26.37
2019-03-16T23:33:49.160Z,25.10
2019-03-16T23:36:26.170Z,25.83
2019-03-16T23:39:03.787Z,27.70
2019-03-16T23:41:40.828Z,26.50
2019-03-16T23:44:17.932Z,28.83
2019-03-16T23:46:54.996Z,28.73
2019-03-16T23:49:32.089Z,28.83
2019-03-16T23:52:09.177Z,26.33
2019-03-16T23:54:46.280Z,27.83
2019-03-16T23:57:23.395Z,25.17
